sensor_id;sensor_type;location;lat;lon;timestamp;pressure;altitude;pressure_sealevel;temperature;humidity
26178;BME280;13924;47.670;10.310;2023-03-03T00:00:40;93710;;;0.8;100.0
26178;BME280;13924;47.670;10.310;2023-03-03T00:15:36;93710;;;0.8;100.0
26178;BME280;13924;47.670;10.310;2023-03-03T00:30:37;93720;;;0.9;100.0
26178;BME280;13924;47.670;10.310;2023-03-03T00:45:48;93720;;;0.9;100.0
26178;BME280;13924;47.670;10.310;2023-03-03T01:00:39;93720;;;0.8;100.0
26178;BME280;13924;47.670;10.310;2023-03-03T01:15:39;93790;;;0.8;100.0
26178;BME280;13924;47.670;10.310;2023-03-03T01:30:41;93810;;;0.7;100.0
26178;BME280;13924;47.670;10.310;2023-03-03T01:46:25;93810;;;0.7;100.0
26178;BME280;13924;47.670;10.310;2023-03-03T02:00:45;93820;;;0.6;100.0
26178;BME280;13924;47.670;10.310;2023-03-03T02:01:30;93820;;;0.6;100.0
26178;BME280;13924;47.670;10.310;2023-03-03T02:15:42;93830;;;0.5;100.0
26178;BME280;13924;47.670;10.310;2023-03-03T02:30:54;93830;;;0.4;100.0
26178;BME280;13924;47.670;10.310;2023-03-03T02:45:50;93830;;;0.4;100.0
26178;BME280;13924;47.670;10.310;2023-03-03T03:00:51;93800;;;0.4;100.0
26178;BME280;13924;47.670;10.310;2023-03-03T03:15:51;93790;;;0.3;100.0
26178;BME280;13924;47.670;10.310;2023-03-03T03:30:51;93790;;;0.3;100.0
26178;BME280;13924;47.670;10.310;2023-03-03T03:45:50;93770;;;0.3;100.0
26178;BME280;13924;47.670;10.310;2023-03-03T04:00:53;93810;;;0.4;100.0
26178;BME280;13924;47.670;10.310;2023-03-03T04:15:51;93810;;;0.4;100.0
26178;BME280;13924;47.670;10.310;2023-03-03T04:30:52;93810;;;0.4;100.0
26178;BME280;13924;47.670;10.310;2023-03-03T04:45:52;93810;;;0.4;100.0
26178;BME280;13924;47.670;10.310;2023-03-03T05:00:56;93820;;;0.4;100.0
26178;BME280;13924;47.670;10.310;2023-03-03T05:15:53;93820;;;0.2;100.0
26178;BME280;13924;47.670;10.310;2023-03-03T05:30:57;93830;;;0.2;100.0
26178;BME280;13924;47.670;10.310;2023-03-03T05:45:54;93820;;;0.2;100.0
26178;BME280;13924;47.670;10.310;2023-03-03T05:52:52;93850;;;0.3;100.0
26178;BME280;13924;47.670;10.310;2023-03-03T06:07:53;93840;;;0.4;100.0
26178;BME280;13924;47.670;10.310;2023-03-03T06:22:52;93840;;;0.5;100.0
26178;BME280;13924;47.670;10.310;2023-03-03T06:37:52;93850;;;0.8;100.0
26178;BME280;13924;47.670;10.310;2023-03-03T06:53:03;93850;;;0.8;100.0
26178;BME280;13924;47.670;10.310;2023-03-03T07:07:55;93820;;;0.9;100.0
26178;BME280;13924;47.670;10.310;2023-03-03T07:22:56;93840;;;1.0;100.0
26178;BME280;13924;47.670;10.310;2023-03-03T07:37:56;93830;;;1.1;100.0
26178;BME280;13924;47.670;10.310;2023-03-03T07:53:00;93830;;;1.1;100.0
26178;BME280;13924;47.670;10.310;2023-03-03T08:08:11;93810;;;1.7;100.0
26178;BME280;13924;47.670;10.310;2023-03-03T08:22:57;93730;;;2.1;100.0
26178;BME280;13924;47.670;10.310;2023-03-03T08:37:58;93680;;;2.5;100.0
26178;BME280;13924;47.670;10.310;2023-03-03T08:52:59;93590;;;2.7;100.0
26178;BME280;13924;47.670;10.310;2023-03-03T09:08:00;93610;;;2.6;100.0
26178;BME280;13924;47.670;10.310;2023-03-03T09:23:33;93610;;;2.8;100.0
26178;BME280;13924;47.670;10.310;2023-03-03T09:38:16;93610;;;2.8;100.0
26178;BME280;13924;47.670;10.310;2023-03-03T09:53:14;93510;;;3.3;100.0
26178;BME280;13924;47.670;10.310;2023-03-03T10:08:17;93510;;;3.2;100.0
26178;BME280;13924;47.670;10.310;2023-03-03T10:23:11;93450;;;4.3;100.0
26178;BME280;13924;47.670;10.310;2023-03-03T10:38:23;93410;;;5.8;100.0
26178;BME280;13924;47.670;10.310;2023-03-03T10:53:20;93390;;;5.1;100.0
26178;BME280;13924;47.670;10.310;2023-03-03T11:08:10;93390;;;5.1;100.0
26178;BME280;13924;47.670;10.310;2023-03-03T11:23:23;93440;;;4.3;100.0
26178;BME280;13924;47.670;10.310;2023-03-03T11:38:18;93450;;;4.5;100.0
26178;BME280;13924;47.670;10.310;2023-03-03T11:53:23;93450;;;4.5;100.0
26178;BME280;13924;47.670;10.310;2023-03-03T12:08:24;93410;;;4.7;100.0
26178;BME280;13924;47.670;10.310;2023-03-03T12:23:23;;;;4.6;100.0
26178;BME280;13924;47.670;10.310;2023-03-03T12:38:22;93430;;;4.6;100.0
26178;BME280;13924;47.670;10.310;2023-03-03T12:53:20;93410;;;4.9;100.0
26178;BME280;13924;47.670;10.310;2023-03-03T13:08:24;93400;;;5.0;100.0
26178;BME280;13924;47.670;10.310;2023-03-03T13:23:19;93400;;;5.0;100.0
26178;BME280;13924;47.670;10.310;2023-03-03T13:38:22;93400;;;5.0;100.0
26178;BME280;13924;47.670;10.310;2023-03-03T13:53:46;93410;;;5.0;100.0
26178;BME280;13924;47.670;10.310;2023-03-03T14:08:23;93410;;;4.6;100.0
26178;BME280;13924;47.670;10.310;2023-03-03T14:23:18;93440;;;4.5;100.0
26178;BME280;13924;47.670;10.310;2023-03-03T14:38:15;93440;;;4.5;100.0
26178;BME280;13924;47.670;10.310;2023-03-03T14:53:33;93440;;;4.5;100.0
26178;BME280;13924;47.670;10.310;2023-03-03T15:08:26;93480;;;4.2;100.0
26178;BME280;13924;47.670;10.310;2023-03-03T15:23:34;93490;;;4.1;100.0
26178;BME280;13924;47.670;10.310;2023-03-03T15:39:02;93490;;;4.1;100.0
26178;BME280;13924;47.670;10.310;2023-03-03T15:53:30;93500;;;4.0;100.0
26178;BME280;13924;47.670;10.310;2023-03-03T16:08:20;93540;;;3.8;100.0
26178;BME280;13924;47.670;10.310;2023-03-03T16:23:38;93540;;;3.8;100.0
26178;BME280;13924;47.670;10.310;2023-03-03T16:38:25;93590;;;3.7;100.0
26178;BME280;13924;47.670;10.310;2023-03-03T16:53:34;93660;;;3.4;100.0
26178;BME280;13924;47.670;10.310;2023-03-03T17:08:34;93740;;;3.2;100.0
26178;BME280;13924;47.670;10.310;2023-03-03T17:23:37;93770;;;3.2;100.0
26178;BME280;13924;47.670;10.310;2023-03-03T17:38:31;93770;;;3.1;100.0
26178;BME280;13924;47.670;10.310;2023-03-03T17:53:36;93790;;;3.0;100.0
26178;BME280;13924;47.670;10.310;2023-03-03T18:08:34;93810;;;3.0;100.0
26178;BME280;13924;47.670;10.310;2023-03-03T18:23:33;93810;;;3.0;100.0
26178;BME280;13924;47.670;10.310;2023-03-03T18:38:31;93810;;;2.8;100.0
26178;BME280;13924;47.670;10.310;2023-03-03T18:53:28;93880;;;2.8;100.0
26178;BME280;13924;47.670;10.310;2023-03-03T19:08:28;93790;;;2.7;100.0
26178;BME280;13924;47.670;10.310;2023-03-03T19:23:45;93880;;;2.1;100.0
26178;BME280;13924;47.670;10.310;2023-03-03T19:38:36;93880;;;2.1;100.0
26178;BME280;13924;47.670;10.310;2023-03-03T19:53:34;93830;;;2.3;100.0
26178;BME280;13924;47.670;10.310;2023-03-03T20:08:37;93890;;;1.7;100.0
26178;BME280;13924;47.670;10.310;2023-03-03T20:23:41;93960;;;1.4;100.0
26178;BME280;13924;47.670;10.310;2023-03-03T20:38:41;93960;;;1.6;100.0
26178;BME280;13924;47.670;10.310;2023-03-03T20:53:39;93830;;;1.5;100.0
26178;BME280;13924;47.670;10.310;2023-03-03T21:08:49;93830;;;1.5;100.0
26178;BME280;13924;47.670;10.310;2023-03-03T21:23:33;93810;;;1.7;100.0
26178;BME280;13924;47.670;10.310;2023-03-03T21:38:41;93810;;;1.7;100.0
26178;BME280;13924;47.670;10.310;2023-03-03T21:53:35;93970;;;0.7;100.0
26178;BME280;13924;47.670;10.310;2023-03-03T22:08:34;94020;;;0.6;100.0
26178;BME280;13924;47.670;10.310;2023-03-03T22:23:35;94140;;;0.6;100.0
26178;BME280;13924;47.670;10.310;2023-03-03T22:38:35;94060;;;0.2;100.0
26178;BME280;13924;47.670;10.310;2023-03-03T22:53:36;94100;;;-0.1;100.0
26178;BME280;13924;47.670;10.310;2023-03-03T23:00:49;94150;;;-0.2;100.0
26178;BME280;13924;47.670;10.310;2023-03-03T23:15:34;94170;;;-0.3;100.0
26178;BME280;13924;47.670;10.310;2023-03-03T23:30:35;94170;;;-0.5;100.0
26178;BME280;13924;47.670;10.310;2023-03-03T23:45:35;94170;;;-0.2;100.0
